메인 페이지
METAR-TAF:

METAR-TAF

공항 :

아비장, 코트디부아르

위도: 05-15N, 경도: 003-56W, 고도: 7m

현재 날씨관측

예보는 26분 전, 19:00시(UTC)에 발표되었습니다.
남서7kt
온도 26°C
습도 89%
기압 1010 hPa
시정 10km 이상
고도 1100ft 상공 구름 보통

METAR: DIAP 201900Z 22007KT 9999 SCT011 26/24 Q1010 NOSIG

시각: 19:26 (19:26 UTC)

예보

예보는 1 시간 46분 전, 17:40시(UTC)에 발표되었습니다.
예보 대상 시간: 20일 18시부터 21일 24시까지 (UTC)
남서8kt
시정 10km 이상
고도 1200ft 상공 구름 보통
확률 30% :
일시적
20일 20시부터 21일 02시까지 (UTC)
시정: 4000m
고도 1000ft 상공 구름 많음
고도 3000ft 상공 구름 많음
이슬비, 비
전환 중
21일 00시부터 21일 02시까지 (UTC)
고도 1000ft 상공 구름 많음
고도 3000ft 상공 구름 많음
일시적
21일 02시부터 21일 08시까지 (UTC)
시정: 3000m
확률 30% :
일시적
21일 08시부터 21일 10시까지 (UTC)
시정: 4000m
이슬비, 비
전환 중
21일 10시부터 21일 1시까지 (UTC)
고도 1200ft 상공 구름 보통
고도 4000ft 상공 구름 많음

TAF: DIAP 201740Z 2018/2124 23008KT 9999 SCT012 PROB30 TEMPO 2020/2102 4000 DZRA BKN010 BKN030 BECMG 2100/2102 BKN010 BKN030 TEMPO 2102/2108 3000 RA PROB30 TEMPO 2108/2110 4000 DZRA BECMG 2110/211 SCT012 BKN040

4,000개 이상의 공항 관측 자료 및 예보 (METAR 및 TAF 보고).

지도상에서 검색 가능한 기상관측소가 노란 점과 빨간 점으로 표시되어 있습니다.

기상관측소 명을 보려면 표시 위로 마우스를 이동하세요.

날씨 관측과 예보를 보려면 클릭하세요.

지도 변경 : 확대하려면 엑스 표시가 있는 녹색 버튼, 축소하려면 빼기 표시가 있는 녹색 버튼, 다음 페이지의 지도를 보려면 녹색 화살표를 클릭하세요.


METAR-TAF: